Nikkei Verde — 3FEY7 — position and weather

sailwx.info

Track history (hours):
 
Tides and Currents Weather Stations Pressure Air Temp Water Temp Dewpoint Dewpoint Depression Visibility Wind Speed Wind Dir Waves Ship Positions

Nikkei Verde

Last reported at 2016-Aug-19 04:30 UTC. Time now 2016-Aug-24 06:42 UTC.
Position N 31°04' W 131°26'.

Length 189 m; draft 11.5 m.

Type: Cargo ship. MMSI: 354519000.

Date/timePositionNaut miles runAvg speedWind from/ knotsBaromVisibWave heightAir tempDewpointWater temp
2016-Aug-19 04:30N 31°04' W 131°26'2311.4
2016-Aug-19 02:29N 30°58' W 131°00'3311.0
2016-Aug-18 23:30N 30°50' W 130°23'2210.4
2016-Aug-18 21:23N 30°42' W 129°59'910.6
2016-Aug-18 20:33N 30°40' W 129°49'14510.8
2016-Aug-18 07:09N 29°58' W 127°08'710.7
2016-Aug-18 06:30N 29°57' W 127°00'6410.8
2016-Aug-18 00:32N 29°38' W 125°49'2510.6
2016-Aug-17 22:12N 29°30' W 125°22'1110.7
2016-Aug-17 21:09N 29°26' W 125°10'910.8
2016-Aug-17 20:18N 29°24' W 124°60'5511.3
2016-Aug-17 15:27N 29°06' W 124°00'1011.0
2016-Aug-17 14:33N 29°01' W 123°51'1110.8
2016-Aug-17 13:33N 28°55' W 123°40'1110.6
2016-Aug-17 12:33N 28°50' W 123°30'1110.7
2016-Aug-17 11:33N 28°44' W 123°20'1110.8
2016-Aug-17 10:33N 28°38' W 123°10'1110.7
2016-Aug-17 09:33N 28°32' W 122°60'1110.8
2016-Aug-17 08:33N 28°26' W 122°49'1110.9
2016-Aug-17 07:33N 28°20' W 122°39'1110.9
2016-Aug-17 06:33N 28°14' W 122°28'1111.0
2016-Aug-17 05:33N 28°09' W 122°18'1110.9
2016-Aug-17 04:33N 28°03' W 122°07'1211.3
2016-Aug-17 03:31N 27°56' W 121°56'1311.4
2016-Aug-17 02:25N 27°49' W 121°44'1011.5
2016-Aug-17 01:33N 27°44' W 121°35'1111.4
2016-Aug-17 00:33N 27°38' W 121°24'3811.5
2016-Aug-16 21:16N 27°17' W 120°48'911.7
2016-Aug-16 20:31N 27°13' W 120°40'1111.7
2016-Aug-16 19:33N 27°07' W 120°29'1311.7
2016-Aug-16 18:27N 26°60' W 120°17'1611.8
2016-Aug-16 17:08N 26°52' W 120°02'812.0
2016-Aug-16 16:30N 26°47' W 119°55'1212.9
2016-Aug-16 15:33N 26°40' W 119°44'1211.9
2016-Aug-16 14:32N 26°33' W 119°33'4711.8
2016-Aug-16 10:33N 26°06' W 118°50'3711.6
2016-Aug-16 07:21N 25°45' W 118°16'  
Track history (hours):
 
Tides and Currents Weather Stations Pressure Air Temp Water Temp Dewpoint Dewpoint Depression Visibility Wind Speed Wind Dir Waves Ship Positions

Nikkei Verde

Last reported at 2016-Aug-19 04:30 UTC. Time now 2016-Aug-24 06:42 UTC.
Position N 31°04' W 131°26'.

Length 189 m; draft 11.5 m.

Type: Cargo ship. MMSI: 354519000.

Date/timePositionNaut miles runAvg speedWind from/ knotsBaromVisibWave heightAir tempDewpointWater temp
2016-Aug-19 04:30N 31°04' W 131°26'2311.4
2016-Aug-19 02:29N 30°58' W 131°00'3311.0
2016-Aug-18 23:30N 30°50' W 130°23'2210.4
2016-Aug-18 21:23N 30°42' W 129°59'910.6
2016-Aug-18 20:33N 30°40' W 129°49'14510.8
2016-Aug-18 07:09N 29°58' W 127°08'710.7
2016-Aug-18 06:30N 29°57' W 127°00'6410.8
2016-Aug-18 00:32N 29°38' W 125°49'2510.6
2016-Aug-17 22:12N 29°30' W 125°22'1110.7
2016-Aug-17 21:09N 29°26' W 125°10'910.8
2016-Aug-17 20:18N 29°24' W 124°60'5511.3
2016-Aug-17 15:27N 29°06' W 124°00'1011.0
2016-Aug-17 14:33N 29°01' W 123°51'1110.8
2016-Aug-17 13:33N 28°55' W 123°40'1110.6
2016-Aug-17 12:33N 28°50' W 123°30'1110.7
2016-Aug-17 11:33N 28°44' W 123°20'1110.8
2016-Aug-17 10:33N 28°38' W 123°10'1110.7
2016-Aug-17 09:33N 28°32' W 122°60'1110.8
2016-Aug-17 08:33N 28°26' W 122°49'1110.9
2016-Aug-17 07:33N 28°20' W 122°39'1110.9
2016-Aug-17 06:33N 28°14' W 122°28'1111.0
2016-Aug-17 05:33N 28°09' W 122°18'1110.9
2016-Aug-17 04:33N 28°03' W 122°07'1211.3
2016-Aug-17 03:31N 27°56' W 121°56'1311.4
2016-Aug-17 02:25N 27°49' W 121°44'1011.5
2016-Aug-17 01:33N 27°44' W 121°35'1111.4
2016-Aug-17 00:33N 27°38' W 121°24'3811.5
2016-Aug-16 21:16N 27°17' W 120°48'911.7
2016-Aug-16 20:31N 27°13' W 120°40'1111.7
2016-Aug-16 19:33N 27°07' W 120°29'1311.7
2016-Aug-16 18:27N 26°60' W 120°17'1611.8
2016-Aug-16 17:08N 26°52' W 120°02'812.0
2016-Aug-16 16:30N 26°47' W 119°55'1212.9
2016-Aug-16 15:33N 26°40' W 119°44'1211.9
2016-Aug-16 14:32N 26°33' W 119°33'4711.8
2016-Aug-16 10:33N 26°06' W 118°50'3711.6
2016-Aug-16 07:21N 25°45' W 118°16'  

Dump ship's entire track history